Time;durP1;ratioP1;P1;durP2;ratioP2;P2;SDS_P1;SDS_P2;PMS_P1;PMS_P2;Temp;Humidity;BMP_temperature;BMP_pressure;BME280_temperature;BME280_humidity;BME280_pressure;Samples;Min_cycle;Max_cycle;Signal;HPM_P1;HPM_P2
2022/03/02 00:01:56;;;;;;;20.03;12.83;;;3.50;99.90;;;;;;5078832;28;20465;-53
2022/03/02 00:04:24;;;;;;;20.10;11.00;;;3.50;99.90;;;;;;5076877;28;20461;-57
2022/03/02 00:06:51;;;;;;;18.47;11.30;;;3.50;99.90;;;;;;5078039;28;20902;-58
2022/03/02 00:09:21;;;;;;;16.40;11.90;;;3.50;99.90;;;;;;5078193;28;20519;-56
2022/03/02 00:11:48;;;;;;;15.33;10.90;;;3.40;99.90;;;;;;5078202;28;20457;-56
2022/03/02 00:14:15;;;;;;;16.83;10.90;;;3.40;99.90;;;;;;5077691;28;20468;-57
2022/03/02 00:16:48;;;;;;;27.97;17.33;;;3.30;99.90;;;;;;5077159;28;21085;-56
2022/03/02 00:19:15;;;;;;;23.23;13.97;;;3.40;99.90;;;;;;5077344;28;20515;-57
2022/03/02 00:21:43;;;;;;;16.30;10.53;;;3.40;99.90;;;;;;5078487;28;20538;-53
2022/03/02 00:24:09;;;;;;;18.73;11.03;;;3.30;99.90;;;;;;5077683;28;20502;-54
2022/03/02 00:26:41;;;;;;;16.80;12.60;;;3.30;99.90;;;;;;5077268;28;20465;-53
2022/03/02 00:29:08;;;;;;;21.20;13.63;;;3.20;99.90;;;;;;5077734;28;20465;-56
2022/03/02 00:31:35;;;;;;;31.57;16.97;;;3.20;99.90;;;;;;5077932;28;20461;-57
2022/03/02 00:34:03;;;;;;;26.73;16.23;;;3.30;99.90;;;;;;5077734;28;20461;-57
2022/03/02 00:36:30;;;;;;;18.10;13.50;;;3.20;99.90;;;;;;5077076;28;20518;-58
2022/03/02 00:38:57;;;;;;;24.97;17.23;;;3.00;99.90;;;;;;5077744;28;20457;-58
2022/03/02 00:41:24;;;;;;;21.23;13.13;;;3.00;99.90;;;;;;5077679;28;20472;-56
2022/03/02 00:43:53;;;;;;;17.37;12.00;;;3.00;99.90;;;;;;5078507;28;20461;-57
2022/03/02 00:46:23;;;;;;;16.07;11.33;;;2.90;99.90;;;;;;5076770;28;20469;-56
2022/03/02 00:48:51;;;;;;;14.30;10.80;;;2.90;99.90;;;;;;5077402;28;20458;-55
2022/03/02 00:51:18;;;;;;;15.27;10.30;;;2.90;99.90;;;;;;5077291;28;20476;-55
2022/03/02 00:53:49;;;;;;;16.13;12.00;;;2.90;99.90;;;;;;5077323;28;20466;-58
2022/03/02 00:56:16;;;;;;;19.97;12.53;;;2.90;99.90;;;;;;5077271;28;20473;-56
2022/03/02 00:58:43;;;;;;;16.73;12.33;;;2.80;99.90;;;;;;5077647;28;21016;-55
2022/03/02 01:01:11;;;;;;;18.17;13.40;;;2.80;99.90;;;;;;5076940;28;20461;-54
2022/03/02 01:03:39;;;;;;;21.10;13.87;;;2.70;99.90;;;;;;5078079;28;20878;-58
2022/03/02 01:06:06;;;;;;;17.37;12.00;;;2.60;99.90;;;;;;5077977;28;20750;-58
2022/03/02 01:08:33;;;;;;;22.70;13.40;;;2.60;99.90;;;;;;5076998;28;20895;-57
2022/03/02 01:11:01;;;;;;;17.70;12.23;;;2.40;99.90;;;;;;5077489;28;20466;-57
2022/03/02 01:13:28;;;;;;;15.40;12.40;;;2.40;99.90;;;;;;5077018;28;20467;-53
2022/03/02 01:15:56;;;;;;;21.10;14.17;;;2.30;99.90;;;;;;5077729;28;20457;-55
2022/03/02 01:18:24;;;;;;;17.43;12.90;;;2.30;99.90;;;;;;5076216;28;20500;-56
2022/03/02 01:20:54;;;;;;;19.70;12.70;;;2.20;99.90;;;;;;5077514;28;20898;-57
2022/03/02 01:23:21;;;;;;;20.03;12.73;;;2.20;99.90;;;;;;5077195;28;20853;-56
2022/03/02 01:25:51;;;;;;;17.37;12.03;;;2.10;99.90;;;;;;5076861;28;20886;-57
2022/03/02 01:28:18;;;;;;;16.93;12.63;;;2.00;99.90;;;;;;5076235;28;20453;-57
2022/03/02 01:30:45;;;;;;;15.63;12.13;;;2.00;99.90;;;;;;5077606;28;20461;-56
2022/03/02 01:33:12;;;;;;;16.50;12.23;;;2.00;99.90;;;;;;5076926;28;20465;-58
2022/03/02 01:35:41;;;;;;;17.40;11.17;;;1.90;99.90;;;;;;5077345;28;20466;-57
2022/03/02 01:38:08;;;;;;;15.33;10.93;;;1.90;99.90;;;;;;5077135;28;20485;-57
2022/03/02 01:40:38;;;;;;;15.03;10.63;;;1.80;99.90;;;;;;5077515;28;20807;-57
2022/03/02 01:43:08;;;;;;;15.63;11.80;;;1.80;99.90;;;;;;5076935;28;20899;-56
2022/03/02 01:45:35;;;;;;;15.70;11.47;;;1.80;99.90;;;;;;5077368;28;20526;-57
2022/03/02 01:48:04;;;;;;;18.43;13.17;;;1.70;99.90;;;;;;5076747;28;20466;-56
2022/03/02 01:50:32;;;;;;;18.97;12.50;;;1.70;99.90;;;;;;5076681;28;20464;-56
2022/03/02 01:53:01;;;;;;;16.37;12.43;;;1.60;99.90;;;;;;5076931;28;20461;-57
2022/03/02 01:55:28;;;;;;;17.63;12.43;;;1.50;99.90;;;;;;5077187;28;21167;-56
2022/03/02 01:57:58;;;;;;;22.60;12.60;;;1.40;99.90;;;;;;5077173;28;20563;-57
2022/03/02 02:00:27;;;;;;;17.10;11.60;;;1.40;99.90;;;;;;5076414;28;20831;-57
2022/03/02 02:02:54;;;;;;;16.63;11.40;;;1.40;99.90;;;;;;5076975;28;20800;-56
2022/03/02 02:05:22;;;;;;;15.23;10.77;;;1.30;99.90;;;;;;5076135;28;20810;-54
2022/03/02 02:07:49;;;;;;;17.03;11.87;;;1.30;99.90;;;;;;5076790;28;20465;-55
2022/03/02 02:10:18;;;;;;;18.37;12.33;;;1.20;99.90;;;;;;5076363;28;20483;-51
2022/03/02 02:12:45;;;;;;;15.40;10.80;;;1.20;99.90;;;;;;5076067;28;20494;-52
2022/03/02 02:15:13;;;;;;;14.87;10.73;;;1.20;99.90;;;;;;5076107;28;20762;-54
2022/03/02 02:17:40;;;;;;;17.63;11.90;;;1.20;99.90;;;;;;5076210;28;20814;-53
2022/03/02 02:20:10;;;;;;;16.40;11.03;;;1.20;99.90;;;;;;5076334;28;20887;-52
2022/03/02 02:22:42;;;;;;;13.30;10.53;;;1.20;99.90;;;;;;5076520;28;20461;-54
2022/03/02 02:25:10;;;;;;;15.63;10.87;;;1.20;99.90;;;;;;5076081;28;20829;-56
2022/03/02 02:27:38;;;;;;;15.80;10.60;;;1.20;99.90;;;;;;5076877;28;20457;-54
2022/03/02 02:30:08;;;;;;;14.93;11.27;;;1.20;99.90;;;;;;5076697;28;20472;-54
2022/03/02 02:32:38;;;;;;;13.57;10.50;;;1.20;99.90;;;;;;5076358;28;20457;-55
2022/03/02 02:35:06;;;;;;;14.00;10.77;;;1.10;99.90;;;;;;5076790;28;20811;-57
2022/03/02 02:37:35;;;;;;;16.90;10.30;;;1.10;99.90;;;;;;5079131;28;20972;-56
2022/03/02 02:40:06;;;;;;;16.70;10.77;;;1.00;99.90;;;;;;5080440;28;20816;-56
2022/03/02 02:42:34;;;;;;;14.40;10.30;;;1.10;99.90;;;;;;5080271;28;20464;-51
2022/03/02 02:45:01;;;;;;;12.10;10.40;;;1.10;99.90;;;;;;5079663;28;20468;-56
2022/03/02 02:47:29;;;;;;;14.10;10.57;;;1.00;99.90;;;;;;5080168;28;20457;-57
2022/03/02 02:49:56;;;;;;;13.93;10.57;;;1.10;99.90;;;;;;5080281;28;20818;-56
2022/03/02 02:52:24;;;;;;;17.43;10.37;;;1.10;99.90;;;;;;5079691;28;20465;-52
2022/03/02 02:54:51;;;;;;;22.40;10.17;;;1.10;99.90;;;;;;5079764;28;20465;-56
2022/03/02 02:57:20;;;;;;;16.13;11.20;;;1.10;99.90;;;;;;5079700;28;20543;-54
2022/03/02 02:59:47;;;;;;;15.60;11.40;;;1.10;99.90;;;;;;5080232;28;20476;-52
2022/03/02 03:02:14;;;;;;;16.47;10.03;;;1.20;99.90;;;;;;5079454;28;20531;-57
2022/03/02 03:04:41;;;;;;;16.03;10.67;;;1.10;99.90;;;;;;5079688;28;20469;-56
2022/03/02 03:07:08;;;;;;;14.40;10.30;;;1.20;99.90;;;;;;5079845;28;20963;-55
2022/03/02 03:09:38;;;;;;;12.97;10.60;;;1.20;99.90;;;;;;5080390;28;20453;-51
2022/03/02 03:12:06;;;;;;;16.00;10.67;;;1.20;99.90;;;;;;5079384;28;20465;-56
2022/03/02 03:14:35;;;;;;;16.90;10.90;;;1.30;99.90;;;;;;5078728;28;20763;-54
2022/03/02 03:17:02;;;;;;;15.23;11.20;;;1.20;99.90;;;;;;5078494;28;20467;-52
2022/03/02 03:19:29;;;;;;;14.70;10.27;;;1.20;99.90;;;;;;5079273;28;20489;-53
2022/03/02 03:21:56;;;;;;;15.27;11.30;;;1.20;99.90;;;;;;5079253;28;20466;-50
2022/03/02 03:24:23;;;;;;;14.77;10.30;;;1.20;99.90;;;;;;5078762;28;20594;-53
2022/03/02 03:26:50;;;;;;;13.20;10.33;;;1.10;99.90;;;;;;5079193;28;20768;-52
2022/03/02 03:29:17;;;;;;;18.20;11.87;;;1.10;99.90;;;;;;5078464;28;20522;-55
2022/03/02 03:31:45;;;;;;;20.47;13.70;;;1.10;99.90;;;;;;5079031;28;20564;-56
2022/03/02 03:34:12;;;;;;;15.10;11.03;;;1.20;99.90;;;;;;5079808;28;20468;-56
2022/03/02 03:36:41;;;;;;;16.50;11.43;;;1.10;99.90;;;;;;5079213;28;20530;-57
2022/03/02 03:39:08;;;;;;;15.47;11.20;;;1.10;99.90;;;;;;5079221;28;20497;-54
2022/03/02 03:41:35;;;;;;;15.67;10.10;;;1.10;99.90;;;;;;5078804;28;20470;-55
2022/03/02 03:44:03;;;;;;;14.73;11.07;;;1.10;99.90;;;;;;5079258;28;20461;-53
2022/03/02 03:46:30;;;;;;;14.23;10.83;;;1.10;99.90;;;;;;5078727;28;20465;-51
2022/03/02 03:49:01;;;;;;;15.07;11.30;;;1.10;99.90;;;;;;5077954;28;20468;-53
2022/03/02 03:51:28;;;;;;;14.57;11.73;;;1.20;99.90;;;;;;5079119;28;20464;-55
2022/03/02 03:53:55;;;;;;;14.67;11.60;;;1.20;99.90;;;;;;5079015;28;20734;-54
2022/03/02 03:56:22;;;;;;;15.67;10.67;;;1.20;99.90;;;;;;5078507;28;20465;-51
2022/03/02 03:58:49;;;;;;;16.70;11.00;;;1.20;99.90;;;;;;5078165;28;20493;-55
2022/03/02 04:01:16;;;;;;;17.20;10.90;;;1.20;99.90;;;;;;5078418;28;20472;-52
2022/03/02 04:03:43;;;;;;;16.00;12.00;;;1.10;99.90;;;;;;5078699;28;20879;-54
2022/03/02 04:06:12;;;;;;;15.63;10.53;;;1.10;99.90;;;;;;5078789;28;20464;-53
2022/03/02 04:08:39;;;;;;;18.30;12.10;;;1.10;99.90;;;;;;5078606;28;20794;-56
2022/03/02 04:11:06;;;;;;;14.87;10.37;;;1.00;99.90;;;;;;5077716;28;20464;-57
2022/03/02 04:13:33;;;;;;;16.67;10.97;;;1.10;99.90;;;;;;5078404;28;20468;-57
2022/03/02 04:16:01;;;;;;;14.73;10.73;;;1.00;99.90;;;;;;5078672;28;20538;-54
2022/03/02 04:18:28;;;;;;;16.50;11.73;;;1.00;99.90;;;;;;5077618;28;20554;-56
2022/03/02 04:20:55;;;;;;;19.07;11.70;;;1.00;99.90;;;;;;5078073;28;20510;-55
2022/03/02 04:23:23;;;;;;;13.90;10.20;;;1.00;99.90;;;;;;5077511;28;20466;-55
2022/03/02 04:25:53;;;;;;;16.50;11.40;;;1.00;99.90;;;;;;5078201;28;20461;-53
2022/03/02 04:28:22;;;;;;;14.50;10.30;;;1.00;99.90;;;;;;5078497;28;20495;-53
2022/03/02 04:30:49;;;;;;;15.27;10.70;;;1.00;99.90;;;;;;5078202;28;20514;-54
2022/03/02 04:33:17;;;;;;;15.77;11.30;;;0.90;99.90;;;;;;5077474;28;20466;-54
2022/03/02 04:35:44;;;;;;;14.30;10.10;;;0.90;99.90;;;;;;5078204;28;20468;-54
2022/03/02 04:38:15;;;;;;;13.23;11.00;;;0.90;99.90;;;;;;5077099;28;20489;-55
2022/03/02 04:40:43;;;;;;;13.30;9.97;;;0.90;99.90;;;;;;5077906;28;20562;-52
2022/03/02 04:43:11;;;;;;;14.10;11.33;;;0.90;99.90;;;;;;5077270;28;20469;-51
2022/03/02 04:45:38;;;;;;;15.40;11.93;;;0.90;99.90;;;;;;5077683;28;20465;-54
2022/03/02 04:48:05;;;;;;;18.50;11.17;;;0.80;99.90;;;;;;5077219;28;20468;-55
2022/03/02 04:50:32;;;;;;;13.07;10.23;;;0.80;99.90;;;;;;5077364;28;20532;-56
2022/03/02 04:53:00;;;;;;;13.10;10.90;;;0.70;99.90;;;;;;5077237;28;21029;-55
2022/03/02 04:55:30;;;;;;;13.20;10.10;;;0.70;99.90;;;;;;5077449;28;20468;-51
2022/03/02 04:58:00;;;;;;;13.73;11.53;;;0.60;99.90;;;;;;5077359;28;20495;-53
2022/03/02 05:00:29;;;;;;;13.93;10.27;;;0.60;99.90;;;;;;5077098;28;20579;-54
2022/03/02 05:02:57;;;;;;;15.30;11.57;;;0.60;99.90;;;;;;5077522;28;20465;-52
2022/03/02 05:05:26;;;;;;;15.73;9.80;;;0.50;99.90;;;;;;5075987;28;20480;-58
2022/03/02 05:07:54;;;;;;;14.20;10.43;;;0.50;99.90;;;;;;5076814;28;20461;-58
2022/03/02 05:10:24;;;;;;;13.50;10.70;;;0.50;99.90;;;;;;5077243;28;20465;-58
2022/03/02 05:12:51;;;;;;;12.80;9.63;;;0.40;99.90;;;;;;5077348;28;20461;-58
2022/03/02 05:15:21;;;;;;;15.93;10.77;;;0.40;99.90;;;;;;5076072;28;20514;-57
2022/03/02 05:17:49;;;;;;;16.17;11.87;;;0.50;99.90;;;;;;5076720;28;20496;-58
2022/03/02 05:20:17;;;;;;;14.57;10.20;;;0.50;99.90;;;;;;5076059;28;20821;-58
2022/03/02 05:22:44;;;;;;;15.70;11.10;;;0.50;99.90;;;;;;5076484;28;20960;-57
2022/03/02 05:25:13;;;;;;;14.70;10.83;;;0.40;99.90;;;;;;5075763;28;20466;-58
2022/03/02 05:27:41;;;;;;;15.53;10.70;;;0.40;99.90;;;;;;5076459;28;20474;-58
2022/03/02 05:30:10;;;;;;;18.23;12.23;;;0.40;99.90;;;;;;5077226;28;20464;-58
2022/03/02 05:32:40;;;;;;;15.67;10.60;;;0.40;99.90;;;;;;5077425;28;20492;-56
2022/03/02 05:35:08;;;;;;;15.20;10.97;;;0.40;99.90;;;;;;5077388;28;20497;-54
2022/03/02 05:37:36;;;;;;;13.00;9.97;;;0.30;99.90;;;;;;5077471;28;20457;-58
2022/03/02 05:40:04;;;;;;;13.27;10.00;;;0.20;99.90;;;;;;5077325;28;20493;-58
2022/03/02 05:42:31;;;;;;;15.47;10.20;;;0.20;99.90;;;;;;5077085;28;20523;-57
2022/03/02 05:44:58;;;;;;;16.47;10.97;;;0.20;99.90;;;;;;5077141;28;20495;-57
2022/03/02 05:47:25;;;;;;;17.47;12.00;;;0.30;99.90;;;;;;5077333;28;20505;-55
2022/03/02 05:49:54;;;;;;;17.20;12.30;;;0.20;99.90;;;;;;5077267;28;20460;-57
2022/03/02 05:52:22;;;;;;;15.20;10.30;;;0.20;99.90;;;;;;5077061;28;20534;-55
2022/03/02 05:54:49;;;;;;;16.60;11.70;;;0.20;99.90;;;;;;5077143;28;20464;-56
2022/03/02 05:57:16;;;;;;;17.40;11.23;;;0.10;99.90;;;;;;5077525;28;20906;-55
2022/03/02 05:59:43;;;;;;;14.17;10.13;;;0.10;99.90;;;;;;5077277;28;21011;-57
2022/03/02 06:02:10;;;;;;;13.40;9.87;;;0.00;99.90;;;;;;5077261;28;20472;-55
2022/03/02 06:04:37;;;;;;;16.20;11.70;;;-0.10;99.90;;;;;;5077089;28;20518;-58
2022/03/02 06:07:06;;;;;;;14.73;11.20;;;-0.10;99.90;;;;;;5076937;28;20466;-58
2022/03/02 06:09:34;;;;;;;19.70;11.83;;;0.00;1.00;;;;;;5077277;28;20467;-58
2022/03/02 06:12:06;;;;;;;19.70;11.67;;;-0.10;1.00;;;;;;5078534;28;20758;-58
2022/03/02 06:14:34;;;;;;;18.73;11.83;;;-0.10;1.00;;;;;;5079849;28;20470;-58
2022/03/02 06:17:01;;;;;;;15.90;11.40;;;-0.10;1.00;;;;;;5079591;28;20844;-57
2022/03/02 06:19:34;;;;;;;18.60;12.77;;;-0.10;1.00;;;;;;5083702;28;20924;-58
2022/03/02 06:22:07;;;;;;;15.23;12.60;;;-0.10;1.00;;;;;;5101325;28;20809;-56
2022/03/02 06:24:35;;;;;;;18.90;13.57;;;0.00;1.00;;;;;;5097754;28;20463;-58
2022/03/02 06:27:02;;;;;;;19.97;14.97;;;0.00;1.00;;;;;;5080092;28;20472;-56
2022/03/02 06:29:29;;;;;;;19.90;14.10;;;0.10;1.00;;;;;;5079717;28;20824;-58
2022/03/02 06:31:56;;;;;;;16.30;12.57;;;0.10;1.00;;;;;;5079736;28;20464;-58
2022/03/02 06:34:23;;;;;;;18.90;12.20;;;0.20;1.00;;;;;;5079479;28;20517;-54
2022/03/02 06:36:51;;;;;;;17.53;12.40;;;0.20;1.00;;;;;;5078904;28;20521;-58
2022/03/02 06:39:22;;;;;;;17.00;12.07;;;0.20;1.00;;;;;;5079615;28;20492;-56
2022/03/02 06:42:04;;;;;;;18.10;12.60;;;0.10;1.00;;;;;;5079906;28;20518;-60
2022/03/02 06:44:34;;;;;;;22.83;16.60;;;0.10;1.00;;;;;;5078392;28;20469;-58
2022/03/02 06:47:09;;;;;;;16.20;11.70;;;0.10;1.00;;;;;;5078995;28;20472;-58
2022/03/02 06:49:52;;;;;;;16.70;12.00;;;0.10;1.00;;;;;;5079301;28;20463;-60
2022/03/02 06:52:22;;;;;;;20.87;12.17;;;0.10;1.00;;;;;;5080239;28;20880;-60
2022/03/02 06:54:51;;;;;;;20.33;12.13;;;0.20;1.00;;;;;;5079932;28;20464;-60
2022/03/02 06:57:20;;;;;;;15.70;11.77;;;0.30;1.00;;;;;;5079687;28;20465;-59
2022/03/02 06:59:53;;;;;;;23.30;13.30;;;0.30;1.00;;;;;;5080057;28;21006;-59
2022/03/02 07:02:28;;;;;;;16.43;12.23;;;0.50;1.00;;;;;;5079718;28;20564;-60
2022/03/02 07:04:57;;;;;;;19.07;12.30;;;0.70;1.00;;;;;;5079782;28;20849;-60
2022/03/02 07:07:24;;;;;;;15.40;11.70;;;0.80;1.00;;;;;;5079195;28;20465;-59
2022/03/02 07:09:54;;;;;;;20.13;11.43;;;0.90;1.00;;;;;;5080186;28;20483;-58
2022/03/02 07:12:22;;;;;;;16.50;11.47;;;1.00;1.00;;;;;;5078786;28;20780;-59
2022/03/02 07:14:51;;;;;;;18.60;11.03;;;1.20;1.00;;;;;;5078553;28;20522;-60
2022/03/02 07:17:18;;;;;;;15.97;10.90;;;1.40;1.00;;;;;;5079081;28;20930;-57
2022/03/02 07:19:45;;;;;;;16.90;11.23;;;1.50;99.90;;;;;;5079825;28;20485;-60
2022/03/02 07:22:19;;;;;;;17.57;11.50;;;1.60;99.90;;;;;;5079494;28;20465;-57
2022/03/02 07:24:54;;;;;;;15.60;11.47;;;1.70;99.90;;;;;;5078795;28;20457;-59
2022/03/02 07:27:23;;;;;;;18.30;11.43;;;1.80;99.90;;;;;;5079236;28;20461;-60
2022/03/02 07:29:52;;;;;;;16.47;11.03;;;1.90;99.90;;;;;;5079777;28;20917;-60
2022/03/02 07:32:26;;;;;;;19.77;14.20;;;2.10;99.90;;;;;;5078733;28;20468;-57
2022/03/02 07:34:57;;;;;;;33.03;19.73;;;2.20;99.90;;;;;;5079785;28;20813;-58
2022/03/02 07:37:25;;;;;;;18.53;13.00;;;2.30;99.90;;;;;;5079052;28;20560;-60
2022/03/02 07:39:53;;;;;;;21.40;15.33;;;2.40;99.90;;;;;;5079159;28;20803;-60
2022/03/02 07:42:21;;;;;;;32.90;21.13;;;2.50;99.90;;;;;;5078628;28;20461;-60
2022/03/02 07:44:51;;;;;;;29.17;21.30;;;2.60;99.90;;;;;;5078661;28;20465;-60
2022/03/02 07:47:19;;;;;;;21.30;12.73;;;2.60;99.90;;;;;;5079577;28;20464;-60
2022/03/02 07:49:47;;;;;;;15.97;11.07;;;2.50;99.90;;;;;;5078471;28;20458;-59
2022/03/02 07:52:15;;;;;;;17.10;12.00;;;2.20;99.90;;;;;;5078920;28;20457;-60
2022/03/02 07:54:44;;;;;;;15.20;11.20;;;2.00;99.90;;;;;;5078985;28;20462;-59
2022/03/02 07:57:18;;;;;;;22.03;12.20;;;2.10;99.90;;;;;;5078178;28;20887;-60
2022/03/02 07:59:46;;;;;;;16.50;12.90;;;2.10;99.90;;;;;;5079121;28;20579;-60
2022/03/02 08:02:15;;;;;;;25.50;15.13;;;2.20;99.90;;;;;;5077987;28;20468;-60
2022/03/02 08:04:43;;;;;;;23.60;15.90;;;2.30;99.90;;;;;;5077513;28;20543;-59
2022/03/02 08:07:11;;;;;;;18.00;14.20;;;2.70;99.90;;;;;;5077327;28;20881;-59
2022/03/02 08:09:38;;;;;;;21.00;13.70;;;3.00;99.90;;;;;;5079113;28;20949;-55
2022/03/02 08:12:07;;;;;;;16.37;13.67;;;3.60;99.90;;;;;;5078636;28;20461;-56
2022/03/02 08:14:38;;;;;;;18.83;13.10;;;4.30;99.90;;;;;;5078755;28;20468;-58
2022/03/02 08:17:05;;;;;;;17.50;13.40;;;4.70;99.90;;;;;;5077983;28;20493;-59
2022/03/02 08:19:33;;;;;;;17.27;12.40;;;5.20;99.90;;;;;;5078301;28;20550;-59
2022/03/02 08:22:08;;;;;;;18.50;12.17;;;5.40;99.90;;;;;;5077995;28;20457;-50
2022/03/02 08:24:38;;;;;;;22.90;13.87;;;5.70;99.90;;;;;;5078186;28;20484;-57
2022/03/02 08:27:05;;;;;;;17.30;13.30;;;5.60;99.90;;;;;;5077602;28;20461;-56
2022/03/02 08:29:37;;;;;;;19.30;13.70;;;5.80;99.90;;;;;;5078190;28;20481;-52
2022/03/02 08:32:05;;;;;;;17.07;14.33;;;6.20;99.90;;;;;;5077328;28;20481;-54
2022/03/02 08:34:34;;;;;;;18.00;13.40;;;6.80;99.90;;;;;;5077254;28;20465;-56
2022/03/02 08:37:02;;;;;;;16.90;13.60;;;6.80;99.90;;;;;;5077675;28;20461;-51
2022/03/02 08:39:31;;;;;;;21.67;13.70;;;7.20;99.90;;;;;;5077823;28;20941;-58
2022/03/02 08:41:58;;;;;;;17.33;14.40;;;7.70;99.90;;;;;;5077990;28;20584;-59
2022/03/02 08:44:26;;;;;;;16.67;14.03;;;8.00;99.90;;;;;;5076772;28;20511;-59
2022/03/02 08:46:54;;;;;;;15.33;12.90;;;8.20;99.90;;;;;;5077578;28;20465;-57
2022/03/02 08:49:22;;;;;;;18.70;13.60;;;8.40;99.90;;;;;;5077913;28;20457;-59
2022/03/02 08:51:50;;;;;;;15.30;13.00;;;8.50;99.90;;;;;;5077927;28;20518;-59
2022/03/02 08:54:20;;;;;;;14.60;13.17;;;8.40;99.90;;;;;;5077084;28;20555;-59
2022/03/02 08:56:53;;;;;;;15.43;13.43;;;8.00;99.90;;;;;;5077719;28;20890;-58
2022/03/02 08:59:25;;;;;;;16.47;13.73;;;7.90;99.90;;;;;;5077655;28;20465;-57
2022/03/02 09:01:55;;;;;;;17.17;13.67;;;8.00;99.90;;;;;;5077909;28;20488;-59
2022/03/02 09:04:23;;;;;;;15.23;13.10;;;8.30;99.90;;;;;;5077573;28;20461;-57
2022/03/02 09:06:51;;;;;;;15.67;13.27;;;8.50;99.90;;;;;;5077491;28;20507;-58
2022/03/02 09:09:18;;;;;;;17.27;14.03;;;8.70;99.90;;;;;;5077521;28;20912;-58
2022/03/02 09:11:48;;;;;;;16.77;12.70;;;8.80;99.90;;;;;;5077246;28;20461;-55
2022/03/02 09:14:17;;;;;;;16.50;12.90;;;9.40;99.90;;;;;;5074714;28;20454;-55
2022/03/02 09:16:48;;;;;;;11.53;10.33;;;9.90;99.90;;;;;;5075533;28;20953;-57
2022/03/02 09:19:24;;;;;;;12.87;9.93;;;10.70;99.90;;;;;;5076236;28;20465;-55
2022/03/02 09:21:51;;;;;;;12.23;10.60;;;11.10;99.90;;;;;;5077637;28;20500;-55
2022/03/02 09:24:19;;;;;;;11.43;10.23;;;11.20;99.90;;;;;;5076781;28;20874;-58
2022/03/02 09:26:47;;;;;;;11.20;9.40;;;11.30;99.90;;;;;;5076317;28;20510;-53
2022/03/02 09:29:17;;;;;;;14.10;10.03;;;11.50;99.90;;;;;;5076310;28;20518;-55
2022/03/02 09:31:49;;;;;;;12.17;10.60;;;11.70;99.90;;;;;;5077565;28;20815;-54
2022/03/02 09:34:25;;;;;;;11.43;9.77;;;12.00;99.90;;;;;;5077304;28;20457;-53
2022/03/02 09:36:55;;;;;;;10.33;9.33;;;12.20;99.90;;;;;;5076398;28;20472;-57
2022/03/02 09:39:23;;;;;;;11.57;10.37;;;12.30;99.90;;;;;;5076630;28;20458;-55
2022/03/02 09:41:54;;;;;;;12.97;9.93;;;12.50;99.90;;;;;;5077560;28;20461;-55
2022/03/02 09:44:25;;;;;;;12.30;9.30;;;12.80;99.90;;;;;;5076116;28;20465;-57
2022/03/02 09:46:55;;;;;;;10.80;9.70;;;12.70;99.90;;;;;;5075531;28;20472;-56
2022/03/02 09:49:31;;;;;;;9.17;8.23;;;12.70;99.90;;;;;;5076916;28;20560;-58
2022/03/02 09:52:04;;;;;;;9.47;7.97;;;12.50;99.90;;;;;;5057509;28;20508;-51
2022/03/02 09:54:37;;;;;;;8.87;8.07;;;12.40;99.90;;;;;;5056747;28;20462;-55
2022/03/02 09:57:08;;;;;;;9.63;8.83;;;12.50;99.90;;;;;;5069428;28;20896;-58
2022/03/02 09:59:37;;;;;;;9.50;8.50;;;12.60;99.90;;;;;;5076867;28;20465;-58
2022/03/02 10:02:07;;;;;;;8.77;7.97;;;12.90;99.90;;;;;;5076538;28;20461;-55
2022/03/02 10:04:40;;;;;;;9.67;8.77;;;13.00;99.90;;;;;;5076973;28;20461;-57
2022/03/02 10:10:07;;;;;;;12.20;8.90;;;13.70;99.90;;;;;;5040240;28;20448;-56
2022/03/02 10:12:35;;;;;;;9.90;9.00;;;13.60;99.90;;;;;;5075477;28;20897;-58
2022/03/02 10:15:03;;;;;;;8.93;8.13;;;13.80;99.90;;;;;;5074817;28;20914;-58
2022/03/02 10:17:35;;;;;;;8.80;8.00;;;13.60;99.90;;;;;;5075867;28;20485;-54
2022/03/02 10:20:08;;;;;;;8.87;8.17;;;13.70;99.90;;;;;;5084476;28;20782;-59
2022/03/02 10:22:58;;;;;;;9.80;8.90;;;13.70;99.90;;;;;;5080628;28;20511;-59
2022/03/02 10:25:34;;;;;;;8.73;7.83;;;13.90;99.90;;;;;;5064962;28;20890;-58
2022/03/02 10:28:04;;;;;;;9.20;8.40;;;14.20;99.90;;;;;;5076280;28;20727;-58
2022/03/02 10:30:36;;;;;;;8.97;8.17;;;14.40;99.90;;;;;;5076410;28;20457;-57
2022/03/02 10:33:17;;;;;;;9.10;8.30;;;14.60;99.90;;;;;;5076439;28;20463;-56
2022/03/02 10:35:51;;;;;;;8.47;7.77;;;14.30;99.90;;;;;;5076918;28;20457;-59
2022/03/02 10:38:29;;;;;;;9.63;8.73;;;14.40;99.90;;;;;;5075446;28;20456;-57
2022/03/02 10:41:00;;;;;;;9.50;8.70;;;14.60;99.90;;;;;;5076278;28;20497;-58
2022/03/02 10:43:39;;;;;;;9.83;8.93;;;14.70;99.90;;;;;;5076259;28;20574;-53
2022/03/02 10:46:08;;;;;;;8.90;7.97;;;14.90;99.90;;;;;;5076377;28;20465;-58
2022/03/02 10:48:38;;;;;;;9.63;8.67;;;15.20;99.90;;;;;;5075213;28;20500;-59
2022/03/02 10:51:09;;;;;;;8.60;7.70;;;15.30;99.90;;;;;;5075080;28;20445;-58
2022/03/02 10:53:40;;;;;;;8.87;8.07;;;15.40;99.90;;;;;;5075421;28;20465;-56
2022/03/02 10:56:09;;;;;;;8.97;8.03;;;15.40;99.90;;;;;;5071224;28;20559;-58
2022/03/02 10:58:38;;;;;;;8.40;7.70;;;15.10;99.90;;;;;;5077881;28;20555;-59
2022/03/02 11:01:06;;;;;;;9.47;8.47;;;14.80;99.90;;;;;;5078985;28;20495;-56
2022/03/02 11:03:39;;;;;;;10.90;8.83;;;15.00;99.90;;;;;;5077854;28;20511;-58
2022/03/02 11:06:07;;;;;;;8.70;7.80;;;15.10;99.90;;;;;;5059033;28;20466;-58
2022/03/02 11:08:36;;;;;;;9.67;8.20;;;15.40;99.90;;;;;;5059952;28;20774;-59
2022/03/02 11:11:03;;;;;;;10.17;9.17;;;15.80;99.90;;;;;;5077905;28;20464;-59
2022/03/02 11:13:35;;;;;;;9.23;8.43;;;15.90;99.90;;;;;;5079243;28;20461;-59
2022/03/02 11:16:04;;;;;;;8.97;8.17;;;15.80;99.90;;;;;;5079727;28;20815;-56
2022/03/02 11:18:36;;;;;;;9.83;9.03;;;16.10;99.90;;;;;;5079110;28;20925;-57
2022/03/02 11:21:05;;;;;;;9.33;8.53;;;16.10;99.90;;;;;;5079253;28;20489;-59
2022/03/02 11:23:44;;;;;;;7.20;6.60;;;16.30;99.90;;;;;;5079342;28;20461;-58
2022/03/02 11:26:18;;;;;;;7.57;6.90;;;15.80;99.90;;;;;;5079873;28;20525;-57
2022/03/02 11:28:46;;;;;;;11.10;8.93;;;15.50;99.90;;;;;;5079109;28;20460;-58
2022/03/02 11:31:18;;;;;;;8.77;8.00;;;15.70;99.90;;;;;;5078556;28;20839;-59
2022/03/02 11:33:45;;;;;;;8.17;7.53;;;15.60;99.90;;;;;;5079507;28;20959;-57
2022/03/02 11:36:17;;;;;;;10.13;8.20;;;15.70;99.90;;;;;;5078993;28;20798;-58
2022/03/02 11:38:53;;;;;;;9.13;7.57;;;15.90;99.90;;;;;;5079475;28;20893;-55
2022/03/02 11:41:34;;;;;;;9.20;8.30;;;15.50;99.90;;;;;;5078308;28;20579;-57
2022/03/02 11:44:05;;;;;;;10.40;8.17;;;15.60;99.90;;;;;;5079345;28;20467;-59
2022/03/02 11:46:32;;;;;;;8.80;7.93;;;15.90;99.90;;;;;;5078734;28;20461;-58
2022/03/02 11:49:04;;;;;;;9.57;8.50;;;16.00;99.90;;;;;;5078941;28;20534;-58
2022/03/02 11:51:33;;;;;;;9.00;7.83;;;16.20;99.90;;;;;;5078793;28;20575;-57
2022/03/02 11:54:01;;;;;;;9.37;8.67;;;16.40;99.90;;;;;;5079003;28;20893;-55
2022/03/02 11:56:29;;;;;;;9.20;8.10;;;16.50;99.90;;;;;;5078135;28;20462;-57
2022/03/02 11:59:05;;;;;;;9.17;8.20;;;16.60;99.90;;;;;;5078678;28;20507;-58
2022/03/02 12:01:41;;;;;;;8.23;7.63;;;16.80;99.90;;;;;;5078467;28;20480;-59
2022/03/02 12:04:09;;;;;;;8.20;7.60;;;16.90;99.90;;;;;;5078529;28;20530;-59
2022/03/02 12:06:45;;;;;;;7.70;7.07;;;16.60;99.90;;;;;;5077391;28;20465;-59
2022/03/02 12:09:26;;;;;;;10.17;9.20;;;16.50;99.90;;;;;;5077989;28;20474;-55
2022/03/02 12:12:07;;;;;;;9.60;8.80;;;16.60;99.90;;;;;;5077701;28;20449;-59
2022/03/02 12:14:44;;;;;;;9.63;8.93;;;16.80;99.90;;;;;;5078675;28;20457;-59
2022/03/02 12:17:16;;;;;;;9.30;8.33;;;16.90;99.90;;;;;;5077954;28;20933;-59
2022/03/02 12:19:49;;;;;;;9.83;9.03;;;16.90;99.90;;;;;;5077348;28;20461;-60
2022/03/02 12:22:18;;;;;;;9.13;8.43;;;16.90;99.90;;;;;;5078217;28;20493;-59
2022/03/02 12:24:48;;;;;;;9.50;8.57;;;16.60;99.90;;;;;;5078645;28;20552;-59
2022/03/02 12:27:20;;;;;;;10.20;8.80;;;16.70;99.90;;;;;;5078027;28;20963;-60
2022/03/02 12:30:00;;;;;;;9.03;8.23;;;16.80;99.90;;;;;;5078476;28;20465;-60
2022/03/02 12:32:30;;;;;;;9.23;8.47;;;16.60;99.90;;;;;;5077933;28;20460;-57
2022/03/02 12:34:59;;;;;;;8.67;6.93;;;16.80;99.90;;;;;;5078051;28;20461;-59
2022/03/02 12:37:27;;;;;;;8.60;7.80;;;16.30;99.90;;;;;;5077383;28;20511;-60
2022/03/02 12:39:56;;;;;;;7.97;7.27;;;15.30;99.90;;;;;;5078638;28;20462;-60
2022/03/02 12:42:23;;;;;;;8.87;8.07;;;14.40;99.90;;;;;;5077526;28;20547;-61
2022/03/02 12:44:55;;;;;;;8.73;8.03;;;15.00;99.90;;;;;;5077767;28;20515;-60
2022/03/02 12:47:24;;;;;;;9.00;8.30;;;16.10;99.90;;;;;;5077511;28;20519;-60
2022/03/02 12:49:54;;;;;;;9.10;8.30;;;16.30;99.90;;;;;;5078254;28;20461;-60
2022/03/02 12:52:24;;;;;;;8.70;7.90;;;16.00;99.90;;;;;;5075567;28;20548;-60
2022/03/02 12:54:52;;;;;;;8.73;7.93;;;16.20;99.90;;;;;;5076270;28;20764;-59